createdAt,value
2022-10-21T00:01:44.809Z,100335.56
2022-10-21T00:04:29.665Z,100340.75
2022-10-21T00:07:14.699Z,100341.63
2022-10-21T00:10:00.185Z,100324.31
2022-10-21T00:12:45.613Z,100327.78
2022-10-21T00:15:30.490Z,100324.31
2022-10-21T00:18:15.496Z,100307.88
2022-10-21T00:21:00.436Z,100312.22
2022-10-21T00:23:46.702Z,100311.34
2022-10-21T00:26:35.010Z,100313.06
2022-10-21T00:29:23.171Z,100320.84
2022-10-21T00:32:08.276Z,100314.78
2022-10-21T00:34:53.478Z,100313.06
2022-10-21T00:37:38.731Z,100325.19
2022-10-21T00:40:24.280Z,100325.19
2022-10-21T00:43:11.156Z,100309.59
2022-10-21T00:46:01.722Z,100307.00
2022-10-21T00:48:56.227Z,100300.94
2022-10-21T00:51:42.045Z,100279.31
2022-10-21T00:54:29.700Z,100275.00
2022-10-21T00:57:15.865Z,100266.31
2022-10-21T01:00:02.457Z,100268.03
2022-10-21T01:02:47.558Z,100275.84
2022-10-21T01:05:33.382Z,100280.16
2022-10-21T01:08:19.587Z,100277.56
2022-10-21T01:11:11.240Z,100261.13
2022-10-21T01:14:37.503Z,100260.28
2022-10-21T01:17:44.809Z,100261.16
2022-10-21T01:20:59.843Z,100243.81
2022-10-21T01:24:23.603Z,100229.06
2022-10-21T01:27:14.531Z,100221.28
2022-10-21T01:30:05.483Z,100217.81
2022-10-21T01:36:12.750Z,100225.63
2022-10-21T01:39:18.897Z,100216.09
2022-10-21T01:42:20.510Z,100213.50
2022-10-21T01:45:18.711Z,100212.66
2022-10-21T01:48:23.633Z,100218.69
2022-10-21T01:51:09.968Z,100206.59
2022-10-21T01:54:02.564Z,100207.44
2022-10-21T01:56:49.787Z,100213.50
2022-10-21T01:59:35.880Z,100208.28
2022-10-21T02:02:26.287Z,100221.28
2022-10-21T02:05:18.218Z,100225.59
2022-10-21T02:08:03.793Z,100225.59
2022-10-21T02:10:52.117Z,100222.97
2022-10-21T02:13:46.321Z,100231.63
2022-10-21T02:16:37.804Z,100219.56
2022-10-21T02:19:23.281Z,100213.47
2022-10-21T02:22:12.211Z,100215.22
2022-10-21T02:25:00.601Z,100213.47
2022-10-21T02:27:46.565Z,100216.06
2022-10-21T02:30:39.607Z,100198.75
2022-10-21T02:33:44.977Z,100198.75
2022-10-21T02:37:03.253Z,100195.28
2022-10-21T02:39:55.908Z,100191.84
2022-10-21T02:42:49.389Z,100191.84
2022-10-21T02:45:34.947Z,100188.34
2022-10-21T02:48:19.740Z,100180.56
2022-10-21T02:51:07.612Z,100173.63
2022-10-21T02:53:52.589Z,100177.97
2022-10-21T02:56:37.582Z,100179.69
2022-10-21T02:59:23.034Z,100178.00
2022-10-21T03:02:08.379Z,100180.56
2022-10-21T03:04:53.471Z,100179.72
2022-10-21T03:07:40.052Z,100187.50
2022-10-21T03:10:25.794Z,100176.28
2022-10-21T03:13:10.713Z,100172.78
2022-10-21T03:15:55.883Z,100174.53
2022-10-21T03:18:40.783Z,100167.63
2022-10-21T03:21:25.723Z,100172.81
2022-10-21T03:24:15.387Z,100168.50
2022-10-21T03:27:13.107Z,100165.03
2022-10-21T03:29:58.126Z,100166.75
2022-10-21T03:32:43.611Z,100182.34
2022-10-21T03:35:28.720Z,100178.00
2022-10-21T03:38:14.423Z,100178.88
2022-10-21T03:40:59.527Z,100174.56
2022-10-21T03:43:44.786Z,100172.84
2022-10-21T03:46:30.620Z,100174.53
2022-10-21T03:49:20.052Z,100174.56
2022-10-21T03:52:06.829Z,100167.66
2022-10-21T03:54:52.268Z,100173.69
2022-10-21T03:57:37.668Z,100176.28
2022-10-21T04:00:25.150Z,100172.81
2022-10-21T04:03:12.601Z,100169.34
2022-10-21T04:05:57.644Z,100165.03
2022-10-21T04:08:42.763Z,100152.03
2022-10-21T04:11:28.135Z,100149.47
2022-10-21T04:14:15.391Z,100156.34
2022-10-21T04:17:07.487Z,100150.31
2022-10-21T04:19:53.235Z,100147.72
2022-10-21T04:22:38.458Z,100152.03
2022-10-21T04:25:24.187Z,100149.44
2022-10-21T04:28:09.201Z,100146.88
2022-10-21T04:30:54.221Z,100139.97
2022-10-21T04:33:39.331Z,100134.75
2022-10-21T04:36:24.229Z,100138.19
2022-10-21T04:39:09.321Z,100131.28
2022-10-21T04:41:54.705Z,100113.09
2022-10-21T04:44:39.882Z,100107.06
2022-10-21T04:47:25.108Z,100107.06
2022-10-21T04:50:10.658Z,100104.47
2022-10-21T04:52:55.815Z,100097.56
2022-10-21T04:55:41.197Z,100095.81
2022-10-21T04:58:26.792Z,100109.66
2022-10-21T05:01:12.152Z,100109.69
2022-10-21T05:03:57.209Z,100116.59
2022-10-21T05:06:43.279Z,100103.63
2022-10-21T05:09:28.210Z,100100.16
2022-10-21T05:12:13.320Z,100103.63
2022-10-21T05:14:58.687Z,100095.84
2022-10-21T05:17:44.365Z,100091.50
2022-10-21T05:20:30.021Z,100099.31
2022-10-21T05:23:17.503Z,100090.69
2022-10-21T05:26:05.418Z,100081.16
2022-10-21T05:28:50.902Z,100088.06
2022-10-21T05:31:36.355Z,100091.50
2022-10-21T05:34:21.546Z,100091.53
2022-10-21T05:37:07.249Z,100103.66
2022-10-21T05:39:52.604Z,100091.56
2022-10-21T05:42:38.318Z,100088.06
2022-10-21T05:45:23.749Z,100087.22
2022-10-21T05:48:09.011Z,100094.13
2022-10-21T05:50:55.048Z,100096.75
2022-10-21T05:53:40.259Z,100096.72
2022-10-21T05:56:25.883Z,100088.09
2022-10-21T05:59:11.593Z,100093.28
2022-10-21T06:01:57.190Z,100095.88
2022-10-21T06:04:44.456Z,100094.16
2022-10-21T06:07:30.112Z,100082.91
2022-10-21T06:10:16.393Z,100078.59
2022-10-21T06:13:01.958Z,100081.19
2022-10-21T06:15:50.262Z,100086.38
2022-10-21T06:18:36.729Z,100074.25
2022-10-21T06:21:22.772Z,100073.38
2022-10-21T06:24:08.321Z,100073.38
2022-10-21T06:26:53.550Z,100072.53
2022-10-21T06:29:38.769Z,100083.75
2022-10-21T06:32:24.138Z,100087.22
2022-10-21T06:35:09.319Z,100086.34
2022-10-21T06:37:54.884Z,100086.34
2022-10-21T06:40:40.321Z,100088.97
2022-10-21T06:43:25.838Z,100101.06
2022-10-21T06:46:15.909Z,100098.44
2022-10-21T06:49:01.394Z,100099.31
2022-10-21T06:51:46.602Z,100101.91
2022-10-21T06:54:32.146Z,100104.53
2022-10-21T06:57:17.540Z,100124.41
2022-10-21T07:00:05.042Z,100120.94
2022-10-21T07:02:50.557Z,100114.03
2022-10-21T07:05:36.137Z,100114.00
2022-10-21T07:08:22.613Z,100123.53
2022-10-21T07:11:19.621Z,100125.25
2022-10-21T07:14:05.126Z,100121.78
2022-10-21T07:16:50.351Z,100114.00
2022-10-21T07:19:36.761Z,100110.53
2022-10-21T07:22:22.181Z,100114.00
2022-10-21T07:25:07.807Z,100112.22
2022-10-21T07:27:52.794Z,100113.09
2022-10-21T07:30:45.209Z,100120.00
2022-10-21T07:33:30.429Z,100129.53
2022-10-21T07:36:22.638Z,100122.56
2022-10-21T07:39:13.332Z,100131.25
2022-10-21T07:41:58.849Z,100132.06
2022-10-21T07:44:44.065Z,100126.84
2022-10-21T07:47:29.236Z,100113.84
2022-10-21T07:50:15.008Z,100121.59
2022-10-21T07:53:10.258Z,100111.19
2022-10-21T07:56:12.936Z,100111.16
2022-10-21T07:58:58.485Z,100105.91
2022-10-21T08:01:44.999Z,100116.28
2022-10-21T08:04:30.428Z,100105.84
2022-10-21T08:07:18.753Z,100111.00
2022-10-21T08:10:05.597Z,100104.91
2022-10-21T08:12:52.000Z,100104.91
2022-10-21T08:15:41.993Z,100097.13
2022-10-21T08:18:27.900Z,100104.91
2022-10-21T08:21:13.143Z,100112.63
2022-10-21T08:24:00.881Z,100120.38
2022-10-21T08:26:46.555Z,100102.97
2022-10-21T08:29:34.286Z,100099.47
2022-10-21T08:32:21.693Z,100094.22
2022-10-21T08:35:07.612Z,100095.09
2022-10-21T08:37:53.337Z,100091.59
2022-10-21T08:40:46.417Z,100094.09
2022-10-21T08:43:34.123Z,100086.28
2022-10-21T08:46:26.723Z,100094.06
2022-10-21T08:49:23.110Z,100106.13
2022-10-21T08:52:15.430Z,100097.41
2022-10-21T08:55:05.203Z,100093.06
2022-10-21T08:57:51.855Z,100092.88
2022-10-21T09:00:47.400Z,100091.19
2022-10-21T09:03:44.758Z,100089.38
2022-10-21T09:06:48.725Z,100097.91
2022-10-21T09:09:49.533Z,100083.09
2022-10-21T09:12:57.867Z,100087.47
2022-10-21T09:16:07.126Z,100101.41
2022-10-21T09:19:14.139Z,100108.56
2022-10-21T09:22:35.584Z,100114.69
2022-10-21T09:25:42.729Z,100108.50
2022-10-21T09:28:29.121Z,100106.66
2022-10-21T09:31:19.939Z,100104.03
2022-10-21T09:34:15.217Z,100097.03
2022-10-21T09:37:06.664Z,100096.09
2022-10-21T09:40:20.933Z,100100.41
2022-10-21T09:43:15.807Z,100100.31
2022-10-21T09:46:01.637Z,100094.97
2022-10-21T09:51:59.688Z,100088.63
2022-10-21T09:54:45.989Z,100092.94
2022-10-21T09:57:58.267Z,100097.25
2022-10-21T10:00:47.696Z,100105.09
2022-10-21T10:03:41.461Z,100101.63
2022-10-21T10:06:44.964Z,100100.72
2022-10-21T10:09:31.518Z,100099.88
2022-10-21T10:12:22.585Z,100110.47
2022-10-21T10:15:25.853Z,100119.06
2022-10-21T10:18:23.753Z,100111.41
2022-10-21T10:21:17.946Z,100118.38
2022-10-21T10:24:03.593Z,100119.22
2022-10-21T10:26:49.523Z,100115.00
2022-10-21T10:29:35.047Z,100119.28
2022-10-21T10:32:24.745Z,100114.03
2022-10-21T10:35:38.328Z,100122.69
2022-10-21T10:38:32.193Z,100121.84
2022-10-21T10:41:18.676Z,100121.72
2022-10-21T10:44:10.931Z,100120.81
2022-10-21T10:46:59.104Z,100122.59
2022-10-21T10:49:44.814Z,100118.28
2022-10-21T10:52:30.265Z,100127.78
2022-10-21T10:55:18.449Z,100122.53
2022-10-21T10:58:12.530Z,100119.69
2022-10-21T11:01:02.243Z,100116.34
2022-10-21T11:03:57.384Z,100111.81
2022-10-21T11:06:48.481Z,100105.78
2022-10-21T11:09:34.085Z,100107.41
2022-10-21T11:12:25.538Z,100101.19
2022-10-21T11:15:15.001Z,100102.91
2022-10-21T11:18:26.102Z,100095.88
2022-10-21T11:21:38.542Z,100093.09
2022-10-21T11:24:37.844Z,100097.44
2022-10-21T11:27:42.434Z,100107.72
2022-10-21T11:30:58.415Z,100106.00
2022-10-21T11:33:55.074Z,100113.88
2022-10-21T11:37:05.775Z,100116.50
2022-10-21T11:40:19.691Z,100132.19
2022-10-21T11:43:29.799Z,100129.69
2022-10-21T11:46:25.295Z,100148.06
2022-10-21T11:49:14.032Z,100158.63
2022-10-21T11:52:07.443Z,100165.66
2022-10-21T11:55:16.684Z,100176.03
2022-10-21T11:58:34.507Z,100174.50
2022-10-21T12:01:22.887Z,100179.72
2022-10-21T12:04:33.004Z,100164.88
2022-10-21T12:07:43.324Z,100173.56
2022-10-21T12:10:47.644Z,100158.91
2022-10-21T12:13:41.152Z,100170.06
2022-10-21T12:16:32.565Z,100161.31
2022-10-21T12:19:20.596Z,100157.09
2022-10-21T12:22:11.345Z,100157.00
2022-10-21T12:25:08.864Z,100144.78
2022-10-21T12:28:10.340Z,100142.25
2022-10-21T12:31:18.533Z,100142.13
2022-10-21T12:34:06.058Z,100141.19
2022-10-21T12:36:52.893Z,100140.38
2022-10-21T12:39:49.891Z,100148.97
2022-10-21T12:42:35.734Z,100144.53
2022-10-21T12:45:32.816Z,100159.34
2022-10-21T12:48:38.899Z,100153.47
2022-10-21T12:51:27.987Z,100155.22
2022-10-21T12:54:17.229Z,100160.44
2022-10-21T12:57:08.415Z,100160.38
2022-10-21T13:00:14.089Z,100159.41
2022-10-21T13:03:06.780Z,100160.28
2022-10-21T13:06:06.107Z,100168.16
2022-10-21T13:08:54.819Z,100162.09
2022-10-21T13:11:40.813Z,100142.75
2022-10-21T13:14:38.484Z,100130.50
2022-10-21T13:17:27.048Z,100130.63
2022-10-21T13:20:15.558Z,100130.53
2022-10-21T13:23:37.081Z,100129.44
2022-10-21T13:26:26.411Z,100141.66
2022-10-21T13:29:15.415Z,100134.66
2022-10-21T13:32:14.118Z,100129.28
2022-10-21T13:35:18.261Z,100113.47
2022-10-21T13:38:23.248Z,100112.66
2022-10-21T13:41:25.803Z,100109.88
2022-10-21T13:44:28.935Z,100105.38
2022-10-21T13:47:34.401Z,100110.66
2022-10-21T13:50:24.676Z,100103.69
2022-10-21T13:53:31.980Z,100112.25
2022-10-21T13:56:28.231Z,100105.94
2022-10-21T13:59:29.011Z,100106.78
2022-10-21T14:02:25.787Z,100110.03
2022-10-21T14:05:30.275Z,100124.75
2022-10-21T14:08:47.022Z,100115.47
2022-10-21T14:11:37.360Z,100118.13
2022-10-21T14:14:26.904Z,100111.16
2022-10-21T14:17:18.946Z,100111.81
2022-10-21T14:20:15.967Z,100114.97
2022-10-21T14:23:06.751Z,100103.88
2022-10-21T14:25:55.560Z,100088.25
2022-10-21T14:28:50.464Z,100086.53
2022-10-21T14:31:36.425Z,100083.19
2022-10-21T14:34:27.540Z,100097.09
2022-10-21T14:37:12.921Z,100095.47
2022-10-21T14:40:10.757Z,100094.63
2022-10-21T14:42:56.050Z,100100.81
2022-10-21T14:45:47.943Z,100111.22
2022-10-21T14:48:54.029Z,100112.00
2022-10-21T14:51:39.768Z,100111.22
2022-10-21T14:54:44.851Z,100110.34
2022-10-21T14:57:42.773Z,100102.44
2022-10-21T15:00:37.647Z,100108.66
2022-10-21T15:04:00.932Z,100116.50
2022-10-21T15:07:00.648Z,100103.56
2022-10-21T15:10:13.190Z,100112.13
2022-10-21T15:12:58.841Z,100108.47
2022-10-21T15:15:54.115Z,100112.06
2022-10-21T15:18:44.010Z,100114.75
2022-10-21T15:21:50.631Z,100105.13
2022-10-21T15:24:43.825Z,100103.97
2022-10-21T15:27:40.100Z,100099.41
2022-10-21T15:30:27.646Z,100104.25
2022-10-21T15:33:13.521Z,100081.41
2022-10-21T15:36:09.354Z,100066.88
2022-10-21T15:38:54.890Z,100066.63
2022-10-21T15:41:41.098Z,100068.88
2022-10-21T15:44:29.779Z,100051.06
2022-10-21T15:47:15.161Z,100019.03
2022-10-21T15:50:00.653Z,100024.84
2022-10-21T15:52:46.483Z,100056.03
2022-10-21T15:55:33.128Z,100068.44
2022-10-21T15:58:18.782Z,100096.34
2022-10-21T16:01:04.228Z,100106.31
2022-10-21T16:03:49.504Z,100107.47
2022-10-21T16:06:35.366Z,100107.84
2022-10-21T16:09:26.602Z,100107.97
2022-10-21T16:12:11.931Z,100114.44
2022-10-21T16:14:57.186Z,100119.13
2022-10-21T16:17:48.198Z,100123.75
2022-10-21T16:20:33.761Z,100131.84
2022-10-21T16:23:18.948Z,100138.97
2022-10-21T16:26:13.476Z,100123.47
2022-10-21T16:28:59.066Z,100134.00
2022-10-21T16:31:44.590Z,100138.41
2022-10-21T16:34:30.287Z,100143.59
2022-10-21T16:37:27.337Z,100144.50
2022-10-21T16:40:16.882Z,100142.88
2022-10-21T16:43:02.540Z,100140.38
2022-10-21T16:45:47.659Z,100149.09
2022-10-21T16:48:33.554Z,100154.44
2022-10-21T16:51:20.228Z,100149.28
2022-10-21T16:54:06.460Z,100167.56
2022-10-21T16:56:54.970Z,100164.16
2022-10-21T16:59:41.757Z,100159.78
2022-10-21T17:02:27.440Z,100159.78
2022-10-21T17:05:13.638Z,100158.03
2022-10-21T17:07:59.195Z,100154.44
2022-10-21T17:10:44.703Z,100157.00
2022-10-21T17:13:30.430Z,100155.16
2022-10-21T17:16:16.603Z,100152.56
2022-10-21T17:19:02.071Z,100153.50
2022-10-21T17:21:47.950Z,100150.09
2022-10-21T17:24:33.560Z,100144.00
2022-10-21T17:27:19.775Z,100146.56
2022-10-21T17:30:06.168Z,100150.03
2022-10-21T17:32:52.187Z,100153.59
2022-10-21T17:35:37.614Z,100157.13
2022-10-21T17:38:22.755Z,100153.63
2022-10-21T17:41:15.688Z,100159.75
2022-10-21T17:44:00.927Z,100168.53
2022-10-21T17:46:49.102Z,100175.47
2022-10-21T17:49:34.559Z,100180.84
2022-10-21T17:52:20.229Z,100180.91
2022-10-21T17:55:07.453Z,100180.94
2022-10-21T17:57:52.625Z,100191.41
2022-10-21T18:00:43.709Z,100188.78
2022-10-21T18:03:30.303Z,100200.16
2022-10-21T18:06:16.007Z,100200.19
2022-10-21T18:09:02.013Z,100206.28
2022-10-21T18:11:47.352Z,100208.94
2022-10-21T18:14:32.771Z,100210.66
2022-10-21T18:17:19.601Z,100215.00
2022-10-21T18:20:05.562Z,100219.41
2022-10-21T18:22:54.103Z,100210.75
2022-10-21T18:25:40.464Z,100218.63
2022-10-21T18:28:26.105Z,100213.31
2022-10-21T18:31:12.451Z,100208.94
2022-10-21T18:33:59.425Z,100202.94
2022-10-21T18:36:44.945Z,100196.84
2022-10-21T18:39:30.535Z,100192.47
2022-10-21T18:42:16.496Z,100182.97
2022-10-21T18:45:11.307Z,100185.50
2022-10-21T18:48:09.429Z,100179.44
2022-10-21T18:51:17.805Z,100176.09
2022-10-21T18:54:16.566Z,100176.94
2022-10-21T18:57:09.727Z,100181.38
2022-10-21T18:59:55.258Z,100184.84
2022-10-21T19:02:41.214Z,100184.09
2022-10-21T19:05:27.231Z,100175.34
2022-10-21T19:08:13.039Z,100171.94
2022-10-21T19:11:01.406Z,100172.00
2022-10-21T19:13:46.903Z,100178.16
2022-10-21T19:16:32.580Z,100183.41
2022-10-21T19:19:17.990Z,100192.06
2022-10-21T19:22:03.889Z,100179.13
2022-10-21T19:24:49.384Z,100189.47
2022-10-21T19:27:34.960Z,100194.78
2022-10-21T19:30:30.788Z,100201.72
2022-10-21T19:33:26.037Z,100206.06
2022-10-21T19:36:17.880Z,100209.53
2022-10-21T19:39:04.310Z,100223.41
2022-10-21T19:41:52.395Z,100240.03
2022-10-21T19:44:38.128Z,100247.84
2022-10-21T19:47:23.834Z,100246.09
2022-10-21T19:52:55.152Z,100249.56
2022-10-21T19:55:40.552Z,100244.31
2022-10-21T19:58:26.343Z,100240.91
2022-10-21T20:01:13.817Z,100243.53
2022-10-21T20:04:01.350Z,100251.34
2022-10-21T20:06:46.532Z,100247.03
2022-10-21T20:09:33.886Z,100234.88
2022-10-21T20:12:22.059Z,100240.09
2022-10-21T20:15:07.743Z,100235.75
2022-10-21T20:17:53.113Z,100234.91
2022-10-21T20:20:41.452Z,100233.16
2022-10-21T20:23:26.736Z,100230.53
2022-10-21T20:26:12.640Z,100226.25
2022-10-21T20:28:59.211Z,100230.59
2022-10-21T20:31:46.153Z,100221.94
2022-10-21T20:34:34.128Z,100218.50
2022-10-21T20:37:23.044Z,100219.34
2022-10-21T20:40:08.926Z,100219.44
2022-10-21T20:42:55.154Z,100242.84
2022-10-21T20:45:40.749Z,100243.72
2022-10-21T20:48:28.118Z,100244.56
2022-10-21T20:51:16.551Z,100257.56
2022-10-21T20:54:08.876Z,100258.41
2022-10-21T20:56:54.258Z,100262.75
2022-10-21T20:59:40.264Z,100267.06
2022-10-21T21:02:25.758Z,100269.72
2022-10-21T21:05:10.976Z,100268.81
2022-10-21T21:07:56.762Z,100280.06
2022-10-21T21:10:43.575Z,100284.53
2022-10-21T21:13:29.421Z,100294.91
2022-10-21T21:16:21.267Z,100297.50
2022-10-21T21:19:07.640Z,100298.38
2022-10-21T21:21:52.799Z,100292.31
2022-10-21T21:24:38.630Z,100286.25
2022-10-21T21:27:25.702Z,100285.38
2022-10-21T21:30:13.354Z,100289.72
2022-10-21T21:32:59.006Z,100293.16
2022-10-21T21:35:45.996Z,100294.03
2022-10-21T21:38:33.958Z,100281.91
2022-10-21T21:41:20.405Z,100286.25
2022-10-21T21:44:07.298Z,100273.25
2022-10-21T21:46:52.449Z,100273.25
2022-10-21T21:49:37.616Z,100280.19
2022-10-21T21:52:23.495Z,100288.00
2022-10-21T21:55:09.312Z,100281.03
2022-10-21T21:57:55.067Z,100269.78
2022-10-21T22:00:40.440Z,100263.75
2022-10-21T22:03:25.932Z,100261.16
2022-10-21T22:06:11.724Z,100261.13
2022-10-21T22:08:58.148Z,100265.47
2022-10-21T22:11:43.528Z,100277.56
2022-10-21T22:14:31.405Z,100293.16
2022-10-21T22:17:19.008Z,100295.78
2022-10-21T22:20:06.752Z,100305.28
2022-10-21T22:22:52.594Z,100300.09
2022-10-21T22:25:37.930Z,100282.75
2022-10-21T22:28:24.127Z,100279.28
2022-10-21T22:31:18.008Z,100295.78
2022-10-21T22:34:05.371Z,100302.69
2022-10-21T22:36:53.400Z,100306.13
2022-10-21T22:39:38.855Z,100296.63
2022-10-21T22:42:24.156Z,100292.28
2022-10-21T22:45:09.684Z,100290.53
2022-10-21T22:47:55.614Z,100287.06
2022-10-21T22:50:41.405Z,100297.47
2022-10-21T22:53:27.315Z,100296.59
2022-10-21T22:56:12.810Z,100280.16
2022-10-21T22:58:58.748Z,100278.41
2022-10-21T23:01:46.661Z,100281.03
2022-10-21T23:04:32.994Z,100259.38
2022-10-21T23:07:18.267Z,100268.91
2022-10-21T23:10:04.710Z,100274.97
2022-10-21T23:12:50.462Z,100278.44
2022-10-21T23:15:36.280Z,100280.16
2022-10-21T23:18:21.796Z,100281.00
2022-10-21T23:21:07.121Z,100281.88
2022-10-21T23:23:52.431Z,100269.72
2022-10-21T23:26:37.685Z,100278.38
2022-10-21T23:29:23.238Z,100276.63
2022-10-21T23:32:08.663Z,100280.06
2022-10-21T23:34:54.286Z,100283.50
2022-10-21T23:37:41.324Z,100282.63
2022-10-21T23:40:28.119Z,100280.06
2022-10-21T23:43:13.587Z,100287.84
2022-10-21T23:45:59.085Z,100288.69
2022-10-21T23:48:44.600Z,100301.66
2022-10-21T23:51:30.056Z,100306.00
2022-10-21T23:54:15.384Z,100311.22
2022-10-21T23:57:00.597Z,100316.41
2022-10-21T23:59:46.021Z,100312.97
